Friday, October 19, 2018, 11:31 AM EDT
Back to Local

KBAF, Westfield Barnes Municipal

Location: Westfield, MA, United States Lat: 42.167
Local Time: 11:31 AM EDT (15:31 GMT) Lon: -72.717
Time Zone: US/Eastern Elev: 272 ft

Show me the last for .
Show Decoded

2018-10-19 10:53 METAR KBAF 191453Z 19008KT 160V220 10SM CLR 09/00 A3019 RMK AO2 SLP227 T00940000
                 58015 =
2018-10-19 09:53 METAR KBAF 191353Z 17007KT 10SM CLR 07/M01 A3021 RMK AO2 SLP233 T00671006 =
2018-10-19 08:53 METAR KBAF 191253Z 20005KT 10SM CLR 03/M01 A3024 RMK AO2 SLP244 T00281011 =
2018-10-19 07:53 METAR KBAF 191153Z 00000KT 10SM CLR M01/M02 A3024 RMK AO2 SLP245 T10061022 10039
                 21022 57008 =
2018-10-19 06:53 METAR KBAF 191053Z 17003KT 10SM CLR M01/M03 A3024 RMK AO2 SLP247 T10111028 =
2018-10-19 05:53 METAR KBAF 190953Z AUTO 17003KT 10SM CLR M02/M03 A3025 RMK AO2 SLP251 T10171033
                 =
2018-10-19 04:53 METAR KBAF 190853Z AUTO 16003KT 10SM CLR M01/M03 A3026 RMK AO2 SLP252 T10111033
                 55001 =
2018-10-19 03:53 METAR KBAF 190753Z AUTO 18005KT 10SM CLR 00/M03 A3026 RMK AO2 SLP252 T00001028 =
2018-10-19 02:53 METAR KBAF 190653Z AUTO VRB05KT 10SM CLR 04/M03 A3025 RMK AO2 SLP249 T00391028 =
2018-10-19 01:53 METAR KBAF 190553Z AUTO 00000KT 10SM CLR 01/M03 A3026 RMK AO2 SLP253 T00111028
                 10044 21011 58012 =
2018-10-19 00:53 METAR KBAF 190453Z AUTO 17004KT 10SM CLR 00/M03 A3028 RMK AO2 SLP258 T00001028
                 400831011 =
2018-10-18 23:53 METAR KBAF 190353Z AUTO 00000KT 10SM CLR 01/M03 A3029 RMK AO2 SLP262 T00061028 =
2018-10-18 22:53 METAR KBAF 190253Z AUTO 00000KT 10SM CLR 03/M04 A3030 RMK AO2 SLP265 T00331044
                 50005 =
2018-10-18 21:53 METAR KBAF 190153Z VRB03KT 10SM CLR 04/M06 A3030 RMK AO2 SLP267 T00391056 =
2018-10-18 20:53 METAR KBAF 190053Z 29011G20KT 10SM CLR 04/M06 A3029 RMK AO2 SLP263 T00441061 =
2018-10-18 19:53 METAR KBAF 182353Z 29007KT 10SM CLR 04/M07 A3028 RMK AO2 SLP260 T00441072 10083
                 20044 53010 =
2018-10-18 18:53 METAR KBAF 182253Z 29009KT 10SM CLR 05/M08 A3027 RMK AO2 SLP256 T00501078 =
2018-10-18 17:53 METAR KBAF 182153Z 30012G23KT 10SM CLR 06/M10 A3026 RMK AO2 SLP254 T00611100 =
2018-10-18 16:53 METAR KBAF 182053Z 29011G17KT 10SM CLR 07/M09 A3025 RMK AO2 PK WND 30028/2010
                 SLP249 T00721094 56001 =
2018-10-18 15:53 METAR KBAF 181953Z 29015G21KT 10SM CLR 08/M09 A3025 RMK AO2 SLP249 T00781089 =
2018-10-18 14:53 METAR KBAF 181853Z 32014G23KT 10SM CLR 08/M09 A3025 RMK AO2 SLP247 T00781094 =
2018-10-18 13:53 METAR KBAF 181753Z COR 35007G17KT 10SM CLR 07/M09 A3026 RMK AO2 SLP250 T00721089
                 10078 20022 58002 =
2018-10-18 12:53 METAR KBAF 181653Z 34015G21KT 10SM CLR 07/M09 A3026 RMK AO2 SLP253 T00721089 =
2018-10-18 11:53 METAR KBAF 181553Z 33017G22KT 10SM CLR 07/M09 A3027 RMK AO2 PK WND 33028/1459
                 SLP254 T00671094 =

Support USWX by starting your Amazon purchase here.